SAS1415 EDDB-EKCH
Flight info
| Callsign | SAS1415 |
|---|---|
| Flight time | 0h 52m |
| Altitude | 35000 |
| Route | GERGA3N GERGA M725 RENKI Y89 USEDU DCT BINZE Z14 BANKU DCT KOSEB T298 MONAK |
| Aircraft | A20N/M-SDE2E3FGHIRWXY/LB1 |
Departure
| Time | 2026-05-03 21:05 |
|---|---|
| Airport | Berlin Brandenburg Airport (EDDB) |
Arrival
| Time | 2026-05-03 21:57 |
|---|---|
| Airport | Copenhagen Kastrup Airport (EKCH) |
| Time | Latitude | Longitude | Altitude | Speed | Heading |
|---|---|---|---|---|---|
| 2026-05-03 20:41 | 52.36284 | 13.50657 | 158 ft | 0 kts | 69° |
| 2026-05-03 20:54 | 52.36283 | 13.50652 | 158 ft | 3 kts | 69° |
| 2026-05-03 20:55 | 52.36273 | 13.50612 | 158 ft | 4 kts | 69° |
| 2026-05-03 20:55 | 52.36265 | 13.50579 | 158 ft | 4 kts | 71° |
| 2026-05-03 20:55 | 52.36261 | 13.50538 | 158 ft | 4 kts | 106° |
| 2026-05-03 20:55 | 52.36274 | 13.50508 | 158 ft | 3 kts | 157° |
| 2026-05-03 20:56 | 52.36277 | 13.50506 | 158 ft | 1 kts | 159° |
| 2026-05-03 20:59 | 52.36276 | 13.50506 | 158 ft | 2 kts | 159° |
| 2026-05-03 20:59 | 52.36177 | 13.50569 | 158 ft | 27 kts | 159° |
| 2026-05-03 20:59 | 52.36000 | 13.50680 | 158 ft | 27 kts | 159° |
| 2026-05-03 21:00 | 52.35820 | 13.50766 | 158 ft | 27 kts | 196° |
| 2026-05-03 21:00 | 52.35779 | 13.50699 | 160 ft | 25 kts | 251° |
| 2026-05-03 21:00 | 52.35646 | 13.50085 | 157 ft | 40 kts | 249° |
| 2026-05-03 21:00 | 52.35547 | 13.49666 | 157 ft | 40 kts | 248° |
| 2026-05-03 21:01 | 52.35446 | 13.49246 | 157 ft | 39 kts | 248° |
| 2026-05-03 21:01 | 52.35347 | 13.48830 | 157 ft | 39 kts | 248° |
| 2026-05-03 21:01 | 52.35248 | 13.48412 | 157 ft | 39 kts | 249° |
| 2026-05-03 21:01 | 52.35151 | 13.47997 | 157 ft | 39 kts | 249° |
| 2026-05-03 21:02 | 52.35051 | 13.47583 | 160 ft | 39 kts | 249° |
| 2026-05-03 21:02 | 52.34955 | 13.47172 | 157 ft | 39 kts | 248° |
| 2026-05-03 21:02 | 52.34860 | 13.46772 | 157 ft | 31 kts | 249° |
| 2026-05-03 21:02 | 52.34836 | 13.46697 | 157 ft | 0 kts | 232° |
| 2026-05-03 21:03 | 52.34789 | 13.46710 | 157 ft | 13 kts | 152° |
| 2026-05-03 21:03 | 52.34675 | 13.46790 | 157 ft | 21 kts | 159° |
| 2026-05-03 21:03 | 52.34566 | 13.46920 | 157 ft | 16 kts | 96° |
| 2026-05-03 21:03 | 52.34578 | 13.46998 | 157 ft | 0 kts | 67° |
| 2026-05-03 21:04 | 52.34584 | 13.47020 | 157 ft | 17 kts | 67° |
| 2026-05-03 21:04 | 52.34731 | 13.47640 | 157 ft | 92 kts | 69° |
| 2026-05-03 21:04 | 52.35035 | 13.48926 | 160 ft | 151 kts | 69° |
| 2026-05-03 21:04 | 52.35397 | 13.50562 | 664 ft | 154 kts | 69° |
| 2026-05-03 21:05 | 52.35470 | 13.52435 | 926 ft | 177 kts | 112° |
| 2026-05-03 21:05 | 52.34725 | 13.54066 | 1385 ft | 188 kts | 135° |
| 2026-05-03 21:05 | 52.33725 | 13.55653 | 1611 ft | 212 kts | 137° |
| 2026-05-03 21:05 | 52.32648 | 13.57396 | 2007 ft | 222 kts | 135° |
| 2026-05-03 21:06 | 52.31582 | 13.59220 | 2581 ft | 221 kts | 134° |
| 2026-05-03 21:06 | 52.30803 | 13.61350 | 3202 ft | 220 kts | 102° |
| 2026-05-03 21:06 | 52.30899 | 13.63854 | 3616 ft | 227 kts | 76° |
| 2026-05-03 21:06 | 52.31383 | 13.66354 | 4016 ft | 236 kts | 71° |
| 2026-05-03 21:07 | 52.31939 | 13.68938 | 4544 ft | 245 kts | 72° |
| 2026-05-03 21:07 | 52.32496 | 13.71580 | 5483 ft | 246 kts | 74° |
| 2026-05-03 21:07 | 52.32857 | 13.74307 | 6473 ft | 246 kts | 89° |
| 2026-05-03 21:07 | 52.32865 | 13.77209 | 7059 ft | 266 kts | 96° |
| 2026-05-03 21:08 | 52.32755 | 13.80305 | 7760 ft | 280 kts | 97° |
| 2026-05-03 21:08 | 52.32625 | 13.83523 | 8664 ft | 287 kts | 97° |
| 2026-05-03 21:08 | 52.32497 | 13.86762 | 9593 ft | 292 kts | 97° |
| 2026-05-03 21:08 | 52.32368 | 13.90102 | 10445 ft | 298 kts | 97° |
| 2026-05-03 21:09 | 52.32238 | 13.93522 | 11282 ft | 304 kts | 97° |
| 2026-05-03 21:09 | 52.32107 | 13.97014 | 12136 ft | 310 kts | 97° |
| 2026-05-03 21:09 | 52.32192 | 14.00581 | 12990 ft | 320 kts | 80° |
| 2026-05-03 21:09 | 52.33045 | 14.03961 | 13861 ft | 327 kts | 54° |
| 2026-05-03 21:10 | 52.34076 | 14.05762 | 14345 ft | 331 kts | 37° |
| 2026-05-03 21:10 | 52.36175 | 14.07457 | 14740 ft | 347 kts | 10° |
| 2026-05-03 21:10 | 52.38631 | 14.07609 | 15026 ft | 363 kts | 351° |
| 2026-05-03 21:10 | 52.41198 | 14.07058 | 15474 ft | 378 kts | 348° |
| 2026-05-03 21:11 | 52.43817 | 14.06417 | 16164 ft | 386 kts | 348° |
| 2026-05-03 21:11 | 52.46505 | 14.05784 | 16927 ft | 392 kts | 348° |
| 2026-05-03 21:11 | 52.49205 | 14.05179 | 17874 ft | 391 kts | 348° |
| 2026-05-03 21:11 | 52.51915 | 14.04588 | 18623 ft | 395 kts | 348° |
| 2026-05-03 21:12 | 52.54655 | 14.03998 | 19244 ft | 400 kts | 348° |
| 2026-05-03 21:12 | 52.57441 | 14.03404 | 19869 ft | 405 kts | 348° |
| 2026-05-03 21:12 | 52.60229 | 14.02811 | 20513 ft | 410 kts | 348° |
| 2026-05-03 21:12 | 52.63106 | 14.02198 | 21152 ft | 414 kts | 348° |
| 2026-05-03 21:13 | 52.65943 | 14.01593 | 21776 ft | 418 kts | 348° |
| 2026-05-03 21:13 | 52.68880 | 14.00967 | 22422 ft | 423 kts | 348° |
| 2026-05-03 21:13 | 52.71777 | 14.00350 | 23022 ft | 427 kts | 349° |
| 2026-05-03 21:13 | 52.74728 | 13.99720 | 23583 ft | 431 kts | 349° |
| 2026-05-03 21:14 | 52.77728 | 13.99081 | 24096 ft | 434 kts | 349° |
| 2026-05-03 21:14 | 52.80742 | 13.98439 | 24598 ft | 437 kts | 349° |
| 2026-05-03 21:14 | 52.83765 | 13.97797 | 25114 ft | 439 kts | 349° |
| 2026-05-03 21:14 | 52.86807 | 13.97149 | 25615 ft | 442 kts | 349° |
| 2026-05-03 21:15 | 52.89877 | 13.96589 | 26101 ft | 446 kts | 353° |
| 2026-05-03 21:15 | 52.93000 | 13.96628 | 26582 ft | 452 kts | 0° |
| 2026-05-03 21:15 | 52.96156 | 13.96995 | 27023 ft | 456 kts | 2° |
| 2026-05-03 21:15 | 52.99333 | 13.97496 | 27481 ft | 459 kts | 3° |
| 2026-05-03 21:16 | 53.02503 | 13.98070 | 27931 ft | 461 kts | 4° |
| 2026-05-03 21:16 | 53.05701 | 13.98683 | 28385 ft | 464 kts | 4° |
| 2026-05-03 21:16 | 53.08920 | 13.99308 | 28818 ft | 466 kts | 4° |
| 2026-05-03 21:16 | 53.12153 | 13.99932 | 29239 ft | 468 kts | 4° |
| 2026-05-03 21:17 | 53.15404 | 14.00551 | 29658 ft | 471 kts | 4° |
| 2026-05-03 21:17 | 53.18661 | 14.01164 | 30053 ft | 473 kts | 4° |
| 2026-05-03 21:17 | 53.21937 | 14.01777 | 30489 ft | 473 kts | 4° |
| 2026-05-03 21:17 | 53.25202 | 14.02387 | 30991 ft | 470 kts | 4° |
| 2026-05-03 21:18 | 53.28414 | 14.02987 | 31466 ft | 469 kts | 4° |
| 2026-05-03 21:18 | 53.31646 | 14.03591 | 31935 ft | 467 kts | 4° |
| 2026-05-03 21:18 | 53.34907 | 14.04201 | 32389 ft | 465 kts | 4° |
| 2026-05-03 21:18 | 53.38128 | 14.04804 | 32831 ft | 464 kts | 4° |
| 2026-05-03 21:19 | 53.41299 | 14.05398 | 33248 ft | 463 kts | 4° |
| 2026-05-03 21:19 | 53.44504 | 14.06001 | 33662 ft | 462 kts | 3° |
| 2026-05-03 21:19 | 53.47698 | 14.06603 | 34044 ft | 462 kts | 3° |
| 2026-05-03 21:19 | 53.50901 | 14.07207 | 34276 ft | 464 kts | 3° |
| 2026-05-03 21:20 | 53.54115 | 14.07814 | 34546 ft | 464 kts | 3° |
| 2026-05-03 21:20 | 53.57317 | 14.08419 | 34821 ft | 465 kts | 3° |
| 2026-05-03 21:20 | 53.63724 | 14.08412 | 34887 ft | 456 kts | 347° |
| 2026-05-03 21:21 | 53.69952 | 14.06436 | 34885 ft | 454 kts | 344° |
| 2026-05-03 21:21 | 53.76117 | 14.04090 | 34881 ft | 454 kts | 343° |
| 2026-05-03 21:22 | 53.82276 | 14.01680 | 34881 ft | 454 kts | 343° |
| 2026-05-03 21:22 | 53.88431 | 13.99297 | 34878 ft | 454 kts | 343° |
| 2026-05-03 21:23 | 53.94584 | 13.96814 | 34882 ft | 452 kts | 338° |
| 2026-05-03 21:23 | 54.00450 | 13.93154 | 34875 ft | 449 kts | 334° |
| 2026-05-03 21:24 | 54.06255 | 13.89208 | 34870 ft | 449 kts | 333° |
| 2026-05-03 21:24 | 54.12042 | 13.85186 | 34876 ft | 449 kts | 333° |
| 2026-05-03 21:25 | 54.17836 | 13.81156 | 34860 ft | 450 kts | 333° |
| 2026-05-03 21:25 | 54.23618 | 13.77139 | 34868 ft | 450 kts | 333° |
| 2026-05-03 21:26 | 54.29415 | 13.73108 | 34856 ft | 450 kts | 333° |
| 2026-05-03 21:26 | 54.35218 | 13.69060 | 34856 ft | 449 kts | 333° |
| 2026-05-03 21:27 | 54.41014 | 13.65003 | 34856 ft | 450 kts | 333° |
| 2026-05-03 21:27 | 54.46774 | 13.60959 | 34857 ft | 450 kts | 333° |
| 2026-05-03 21:28 | 54.52561 | 13.56883 | 34851 ft | 449 kts | 333° |
| 2026-05-03 21:28 | 54.58345 | 13.52799 | 34841 ft | 449 kts | 332° |
| 2026-05-03 21:29 | 54.64129 | 13.48693 | 34848 ft | 450 kts | 331° |
| 2026-05-03 21:29 | 54.66851 | 13.46133 | 34845 ft | 441 kts | 320° |
| 2026-05-03 21:29 | 54.69163 | 13.42729 | 34847 ft | 432 kts | 307° |
| 2026-05-03 21:30 | 54.70926 | 13.38620 | 34842 ft | 423 kts | 294° |
| 2026-05-03 21:30 | 54.72135 | 13.34019 | 34839 ft | 418 kts | 287° |
| 2026-05-03 21:30 | 54.74035 | 13.24531 | 34831 ft | 417 kts | 283° |
| 2026-05-03 21:31 | 54.75736 | 13.14926 | 34848 ft | 417 kts | 283° |
| 2026-05-03 21:31 | 54.77442 | 13.05326 | 34837 ft | 417 kts | 283° |
| 2026-05-03 21:32 | 54.79068 | 12.95691 | 34834 ft | 413 kts | 275° |
| 2026-05-03 21:32 | 54.79217 | 12.85959 | 34836 ft | 390 kts | 264° |
| 2026-05-03 21:33 | 54.79081 | 12.81393 | 34697 ft | 379 kts | 263° |
| 2026-05-03 21:33 | 54.78885 | 12.76796 | 34220 ft | 377 kts | 262° |
| 2026-05-03 21:33 | 54.78660 | 12.72296 | 33425 ft | 383 kts | 262° |
| 2026-05-03 21:33 | 54.78423 | 12.67660 | 32556 ft | 389 kts | 263° |
| 2026-05-03 21:34 | 54.78571 | 12.62927 | 31710 ft | 401 kts | 277° |
| 2026-05-03 21:34 | 54.79498 | 12.58304 | 30879 ft | 416 kts | 294° |
| 2026-05-03 21:34 | 54.81247 | 12.54213 | 30116 ft | 429 kts | 307° |
| 2026-05-03 21:34 | 54.83344 | 12.50482 | 29253 ft | 435 kts | 310° |
| 2026-05-03 21:35 | 54.85515 | 12.46797 | 28360 ft | 438 kts | 310° |
| 2026-05-03 21:35 | 54.87699 | 12.43098 | 27496 ft | 440 kts | 310° |
| 2026-05-03 21:35 | 54.89911 | 12.39394 | 26685 ft | 444 kts | 314° |
| 2026-05-03 21:35 | 54.92504 | 12.36370 | 25859 ft | 455 kts | 330° |
| 2026-05-03 21:36 | 54.95553 | 12.34706 | 25070 ft | 465 kts | 347° |
| 2026-05-03 21:36 | 54.98814 | 12.34578 | 24307 ft | 473 kts | 4° |
| 2026-05-03 21:36 | 55.02016 | 12.36029 | 23564 ft | 479 kts | 20° |
| 2026-05-03 21:36 | 55.04907 | 12.38905 | 22706 ft | 481 kts | 36° |
| 2026-05-03 21:37 | 55.07249 | 12.43026 | 21856 ft | 481 kts | 53° |
| 2026-05-03 21:37 | 55.08870 | 12.48103 | 21033 ft | 477 kts | 70° |
| 2026-05-03 21:37 | 55.09622 | 12.53674 | 20277 ft | 469 kts | 87° |
| 2026-05-03 21:37 | 55.09468 | 12.59279 | 19537 ft | 458 kts | 104° |
| 2026-05-03 21:38 | 55.08443 | 12.64447 | 18825 ft | 445 kts | 122° |
| 2026-05-03 21:38 | 55.06668 | 12.68747 | 18090 ft | 431 kts | 139° |
| 2026-05-03 21:38 | 55.04476 | 12.72234 | 17287 ft | 423 kts | 144° |
| 2026-05-03 21:38 | 55.02263 | 12.75480 | 16525 ft | 419 kts | 145° |
| 2026-05-03 21:39 | 55.00043 | 12.78723 | 15763 ft | 414 kts | 145° |
| 2026-05-03 21:39 | 54.97847 | 12.81940 | 15018 ft | 409 kts | 145° |
| 2026-05-03 21:39 | 54.95682 | 12.85118 | 14292 ft | 405 kts | 145° |
| 2026-05-03 21:39 | 54.93516 | 12.88146 | 13574 ft | 399 kts | 146° |
| 2026-05-03 21:40 | 54.91681 | 12.91820 | 12765 ft | 407 kts | 126° |
| 2026-05-03 21:40 | 54.90611 | 12.96414 | 11992 ft | 415 kts | 108° |
| 2026-05-03 21:40 | 54.90398 | 13.01436 | 11244 ft | 421 kts | 89° |
| 2026-05-03 21:40 | 54.91083 | 13.06375 | 10512 ft | 425 kts | 70° |
| 2026-05-03 21:41 | 54.92627 | 13.10754 | 9794 ft | 425 kts | 50° |
| 2026-05-03 21:41 | 54.94864 | 13.14065 | 9008 ft | 421 kts | 30° |
| 2026-05-03 21:41 | 54.97529 | 13.15982 | 8244 ft | 411 kts | 11° |
| 2026-05-03 21:41 | 55.00331 | 13.16396 | 7484 ft | 399 kts | 352° |
| 2026-05-03 21:42 | 55.02976 | 13.15395 | 6756 ft | 385 kts | 335° |
| 2026-05-03 21:42 | 55.05242 | 13.13091 | 6014 ft | 370 kts | 316° |
| 2026-05-03 21:42 | 55.07116 | 13.10114 | 5329 ft | 361 kts | 311° |
| 2026-05-03 21:42 | 55.08842 | 13.07126 | 4983 ft | 345 kts | 310° |
| 2026-05-03 21:43 | 55.10514 | 13.04196 | 4739 ft | 327 kts | 309° |
| 2026-05-03 21:43 | 55.12080 | 13.01442 | 4495 ft | 312 kts | 309° |
| 2026-05-03 21:43 | 55.13552 | 12.98849 | 4253 ft | 299 kts | 309° |
| 2026-05-03 21:43 | 55.14989 | 12.96319 | 4009 ft | 287 kts | 309° |
| 2026-05-03 21:44 | 55.16373 | 12.93889 | 3799 ft | 276 kts | 309° |
| 2026-05-03 21:44 | 55.17696 | 12.91573 | 3644 ft | 263 kts | 309° |
| 2026-05-03 21:44 | 55.18964 | 12.89356 | 3505 ft | 252 kts | 309° |
| 2026-05-03 21:44 | 55.20182 | 12.87228 | 3368 ft | 242 kts | 309° |
| 2026-05-03 21:45 | 55.21354 | 12.85185 | 3227 ft | 234 kts | 309° |
| 2026-05-03 21:45 | 55.22488 | 12.83210 | 3079 ft | 226 kts | 309° |
| 2026-05-03 21:45 | 55.23585 | 12.81298 | 2927 ft | 219 kts | 309° |
| 2026-05-03 21:45 | 55.24649 | 12.79446 | 2831 ft | 213 kts | 310° |
| 2026-05-03 21:46 | 55.25716 | 12.77585 | 2849 ft | 214 kts | 309° |
| 2026-05-03 21:46 | 55.26759 | 12.75766 | 2858 ft | 218 kts | 310° |
| 2026-05-03 21:46 | 55.27921 | 12.73867 | 2835 ft | 240 kts | 322° |
| 2026-05-03 21:46 | 55.29527 | 12.72841 | 2845 ft | 254 kts | 354° |
| 2026-05-03 21:47 | 55.31262 | 12.73348 | 2840 ft | 256 kts | 26° |
| 2026-05-03 21:47 | 55.32622 | 12.75261 | 2848 ft | 251 kts | 57° |
| 2026-05-03 21:47 | 55.33336 | 12.78008 | 2844 ft | 247 kts | 78° |
| 2026-05-03 21:47 | 55.33756 | 12.80927 | 2846 ft | 247 kts | 79° |
| 2026-05-03 21:48 | 55.34432 | 12.83717 | 2851 ft | 253 kts | 59° |
| 2026-05-03 21:48 | 55.35701 | 12.85881 | 2850 ft | 257 kts | 29° |
| 2026-05-03 21:48 | 55.37409 | 12.86676 | 2855 ft | 256 kts | 3° |
| 2026-05-03 21:48 | 55.39199 | 12.86773 | 2972 ft | 258 kts | 358° |
| 2026-05-03 21:49 | 55.40998 | 12.86745 | 2994 ft | 259 kts | 356° |
| 2026-05-03 21:49 | 55.42774 | 12.86701 | 3009 ft | 259 kts | 357° |
| 2026-05-03 21:49 | 55.44573 | 12.86661 | 3008 ft | 259 kts | 357° |
| 2026-05-03 21:49 | 55.46378 | 12.86625 | 2997 ft | 260 kts | 358° |
| 2026-05-03 21:50 | 55.48185 | 12.86593 | 3010 ft | 260 kts | 358° |
| 2026-05-03 21:50 | 55.49988 | 12.86563 | 2996 ft | 259 kts | 357° |
| 2026-05-03 21:50 | 55.51794 | 12.86534 | 3004 ft | 258 kts | 358° |
| 2026-05-03 21:50 | 55.53584 | 12.86504 | 3009 ft | 258 kts | 358° |
| 2026-05-03 21:51 | 55.55388 | 12.86476 | 3003 ft | 259 kts | 358° |
| 2026-05-03 21:51 | 55.57187 | 12.86448 | 3002 ft | 259 kts | 357° |
| 2026-05-03 21:51 | 55.58989 | 12.86420 | 3003 ft | 259 kts | 357° |
| 2026-05-03 21:51 | 55.60798 | 12.86391 | 2896 ft | 259 kts | 358° |
| 2026-05-03 21:52 | 55.62606 | 12.86360 | 2444 ft | 263 kts | 359° |
| 2026-05-03 21:52 | 55.64433 | 12.86332 | 2086 ft | 261 kts | 359° |
| 2026-05-03 21:52 | 55.66210 | 12.86305 | 2011 ft | 247 kts | 359° |
| 2026-05-03 21:52 | 55.67869 | 12.86281 | 2008 ft | 231 kts | 359° |
| 2026-05-03 21:53 | 55.69420 | 12.86207 | 2002 ft | 215 kts | 350° |
| 2026-05-03 21:53 | 55.70319 | 12.85627 | 2004 ft | 202 kts | 324° |
| 2026-05-03 21:53 | 55.71324 | 12.83976 | 2000 ft | 196 kts | 291° |
| 2026-05-03 21:53 | 55.71405 | 12.81810 | 2049 ft | 165 kts | 245° |
| 2026-05-03 21:54 | 55.70887 | 12.80105 | 2094 ft | 155 kts | 233° |
| 2026-05-03 21:54 | 55.70182 | 12.78673 | 2027 ft | 155 kts | 221° |
| 2026-05-03 21:54 | 55.69394 | 12.77409 | 1863 ft | 147 kts | 220° |
| 2026-05-03 21:54 | 55.68658 | 12.76254 | 1674 ft | 138 kts | 219° |
| 2026-05-03 21:55 | 55.67941 | 12.75141 | 1485 ft | 137 kts | 219° |
| 2026-05-03 21:55 | 55.67223 | 12.74023 | 1301 ft | 137 kts | 219° |
| 2026-05-03 21:55 | 55.66507 | 12.72908 | 1108 ft | 138 kts | 219° |
| 2026-05-03 21:55 | 55.65786 | 12.71790 | 909 ft | 138 kts | 219° |
| 2026-05-03 21:56 | 55.65057 | 12.70658 | 705 ft | 140 kts | 221° |
| 2026-05-03 21:56 | 55.64313 | 12.69505 | 532 ft | 141 kts | 223° |
| 2026-05-03 21:56 | 55.63584 | 12.68376 | 335 ft | 138 kts | 224° |
| 2026-05-03 21:56 | 55.62866 | 12.67271 | 126 ft | 136 kts | 224° |
| 2026-05-03 21:57 | 55.62189 | 12.66218 | 36 ft | 123 kts | 223° |
| 2026-05-03 21:57 | 55.61613 | 12.65318 | 18 ft | 90 kts | 221° |
| 2026-05-03 21:57 | 55.61303 | 12.64793 | 21 ft | 34 kts | 236° |
| 2026-05-03 21:57 | 55.61227 | 12.64488 | 20 ft | 21 kts | 251° |
| 2026-05-03 21:58 | 55.61183 | 12.64244 | 20 ft | 20 kts | 253° |
| 2026-05-03 21:58 | 55.61216 | 12.64121 | 20 ft | 10 kts | 331° |
| 2026-05-03 21:58 | 55.61293 | 12.64127 | 20 ft | 14 kts | 29° |
| 2026-05-03 21:58 | 55.61385 | 12.64235 | 20 ft | 17 kts | 34° |
| 2026-05-03 21:59 | 55.61488 | 12.64355 | 20 ft | 18 kts | 32° |
| 2026-05-03 21:59 | 55.61594 | 12.64478 | 20 ft | 19 kts | 33° |
| 2026-05-03 21:59 | 55.61708 | 12.64571 | 20 ft | 17 kts | 354° |
| 2026-05-03 21:59 | 55.61829 | 12.64532 | 22 ft | 18 kts | 349° |
| 2026-05-03 22:00 | 55.61952 | 12.64492 | 21 ft | 19 kts | 348° |
| 2026-05-03 22:00 | 55.62084 | 12.64446 | 20 ft | 20 kts | 349° |
| 2026-05-03 22:00 | 55.62225 | 12.64403 | 20 ft | 22 kts | 352° |
| 2026-05-03 22:00 | 55.62367 | 12.64440 | 20 ft | 20 kts | 17° |
| 2026-05-03 22:01 | 55.62471 | 12.64566 | 20 ft | 18 kts | 67° |
| 2026-05-03 22:01 | 55.62544 | 12.64654 | 20 ft | 8 kts | 2° |
| 2026-05-03 22:01 | 55.62553 | 12.64655 | 20 ft | 0 kts | 2° |
| 2026-05-03 22:01 | 55.62556 | 12.64655 | 20 ft | 1 kts | 2° |
| 2026-05-03 22:02 | 55.62564 | 12.64655 | 20 ft | 4 kts | 0° |
| 2026-05-03 22:02 | 55.62614 | 12.64660 | 20 ft | 7 kts | 7° |
| 2026-05-03 22:02 | 55.62633 | 12.64635 | 20 ft | 3 kts | 310° |
| 2026-05-03 22:02 | 55.62641 | 12.64598 | 20 ft | 4 kts | 282° |
| 2026-05-03 22:03 | 55.62645 | 12.64557 | 20 ft | 1 kts | 282° |
| 2026-05-03 22:03 | 55.62646 | 12.64555 | 20 ft | 0 kts | 281° |